sensor_id;sensor_type;location;lat;lon;timestamp;P1;durP1;ratioP1;P2;durP2;ratioP2
59424;SDS011;45231;44.826;20.312;2022-10-31T00:03:35;27.55;;;12.68;;
59424;SDS011;45231;44.826;20.312;2022-10-31T00:06:01;24.40;;;12.40;;
59424;SDS011;45231;44.826;20.312;2022-10-31T00:08:27;26.50;;;12.50;;
59424;SDS011;45231;44.826;20.312;2022-10-31T00:10:53;34.57;;;13.17;;
59424;SDS011;45231;44.826;20.312;2022-10-31T00:13:19;29.23;;;14.23;;
59424;SDS011;45231;44.826;20.312;2022-10-31T00:15:45;31.30;;;13.77;;
59424;SDS011;45231;44.826;20.312;2022-10-31T00:18:11;25.73;;;11.70;;
59424;SDS011;45231;44.826;20.312;2022-10-31T00:20:38;26.30;;;11.38;;
59424;SDS011;45231;44.826;20.312;2022-10-31T00:23:04;27.20;;;12.73;;
59424;SDS011;45231;44.826;20.312;2022-10-31T00:25:33;25.38;;;12.25;;
59424;SDS011;45231;44.826;20.312;2022-10-31T00:27:59;30.08;;;11.65;;
59424;SDS011;45231;44.826;20.312;2022-10-31T00:30:25;30.03;;;11.87;;
59424;SDS011;45231;44.826;20.312;2022-10-31T00:32:58;27.10;;;13.03;;
59424;SDS011;45231;44.826;20.312;2022-10-31T00:35:25;32.42;;;12.98;;
59424;SDS011;45231;44.826;20.312;2022-10-31T00:37:51;29.97;;;13.13;;
59424;SDS011;45231;44.826;20.312;2022-10-31T00:40:18;26.90;;;13.00;;
59424;SDS011;45231;44.826;20.312;2022-10-31T00:42:44;30.88;;;11.35;;
59424;SDS011;45231;44.826;20.312;2022-10-31T00:45:10;28.75;;;13.82;;
59424;SDS011;45231;44.826;20.312;2022-10-31T00:47:36;31.27;;;12.38;;
59424;SDS011;45231;44.826;20.312;2022-10-31T00:50:03;26.63;;;12.15;;
59424;SDS011;45231;44.826;20.312;2022-10-31T00:52:30;31.27;;;13.18;;
59424;SDS011;45231;44.826;20.312;2022-10-31T00:54:56;25.10;;;11.60;;
59424;SDS011;45231;44.826;20.312;2022-10-31T00:57:22;31.25;;;12.57;;
59424;SDS011;45231;44.826;20.312;2022-10-31T00:59:48;25.23;;;11.97;;
59424;SDS011;45231;44.826;20.312;2022-10-31T01:02:14;26.30;;;11.68;;
59424;SDS011;45231;44.826;20.312;2022-10-31T01:04:40;26.00;;;12.32;;
59424;SDS011;45231;44.826;20.312;2022-10-31T01:07:06;25.57;;;12.47;;
59424;SDS011;45231;44.826;20.312;2022-10-31T01:09:33;25.58;;;11.73;;
59424;SDS011;45231;44.826;20.312;2022-10-31T01:11:59;25.85;;;11.77;;
59424;SDS011;45231;44.826;20.312;2022-10-31T01:14:25;30.30;;;12.07;;
59424;SDS011;45231;44.826;20.312;2022-10-31T01:16:51;30.53;;;11.27;;
59424;SDS011;45231;44.826;20.312;2022-10-31T01:19:17;21.40;;;10.25;;
59424;SDS011;45231;44.826;20.312;2022-10-31T01:21:44;20.23;;;10.55;;
59424;SDS011;45231;44.826;20.312;2022-10-31T01:24:10;25.37;;;10.23;;
59424;SDS011;45231;44.826;20.312;2022-10-31T01:26:36;29.83;;;11.37;;
59424;SDS011;45231;44.826;20.312;2022-10-31T01:29:04;34.75;;;10.38;;
59424;SDS011;45231;44.826;20.312;2022-10-31T01:31:32;20.75;;;9.63;;
59424;SDS011;45231;44.826;20.312;2022-10-31T01:33:58;25.50;;;10.10;;
59424;SDS011;45231;44.826;20.312;2022-10-31T01:36:26;28.30;;;8.45;;
59424;SDS011;45231;44.826;20.312;2022-10-31T01:38:53;24.75;;;11.00;;
59424;SDS011;45231;44.826;20.312;2022-10-31T01:46:15;21.75;;;10.77;;
59424;SDS011;45231;44.826;20.312;2022-10-31T01:48:42;22.52;;;11.25;;
59424;SDS011;45231;44.826;20.312;2022-10-31T01:51:08;30.20;;;12.23;;
59424;SDS011;45231;44.826;20.312;2022-10-31T01:53:35;25.65;;;11.73;;
59424;SDS011;45231;44.826;20.312;2022-10-31T01:56:01;22.20;;;10.98;;
59424;SDS011;45231;44.826;20.312;2022-10-31T01:58:28;21.40;;;10.48;;
59424;SDS011;45231;44.826;20.312;2022-10-31T02:00:56;31.27;;;10.55;;
59424;SDS011;45231;44.826;20.312;2022-10-31T02:03:22;21.33;;;10.35;;
59424;SDS011;45231;44.826;20.312;2022-10-31T02:05:49;20.15;;;10.07;;
59424;SDS011;45231;44.826;20.312;2022-10-31T02:10:47;18.85;;;9.82;;
59424;SDS011;45231;44.826;20.312;2022-10-31T02:13:14;24.83;;;10.05;;
59424;SDS011;45231;44.826;20.312;2022-10-31T02:15:41;23.85;;;11.43;;
59424;SDS011;45231;44.826;20.312;2022-10-31T02:18:08;26.67;;;9.45;;
59424;SDS011;45231;44.826;20.312;2022-10-31T02:20:42;30.42;;;11.55;;
59424;SDS011;45231;44.826;20.312;2022-10-31T02:33:57;31.40;;;11.67;;
59424;SDS011;45231;44.826;20.312;2022-10-31T02:41:27;25.10;;;10.68;;
59424;SDS011;45231;44.826;20.312;2022-10-31T02:44:08;38.65;;;12.00;;
59424;SDS011;45231;44.826;20.312;2022-10-31T02:51:46;21.60;;;10.73;;
59424;SDS011;45231;44.826;20.312;2022-10-31T02:54:30;23.20;;;11.03;;
59424;SDS011;45231;44.826;20.312;2022-10-31T02:57:01;25.08;;;11.25;;
59424;SDS011;45231;44.826;20.312;2022-10-31T02:59:28;28.35;;;11.70;;
59424;SDS011;45231;44.826;20.312;2022-10-31T03:02:12;29.77;;;12.50;;
59424;SDS011;45231;44.826;20.312;2022-10-31T03:14:54;32.97;;;13.23;;
59424;SDS011;45231;44.826;20.312;2022-10-31T03:17:24;26.30;;;10.88;;
59424;SDS011;45231;44.826;20.312;2022-10-31T03:19:53;27.73;;;12.57;;
59424;SDS011;45231;44.826;20.312;2022-10-31T03:22:23;28.73;;;13.68;;
59424;SDS011;45231;44.826;20.312;2022-10-31T03:24:51;29.90;;;12.95;;
59424;SDS011;45231;44.826;20.312;2022-10-31T03:27:18;31.90;;;14.50;;
59424;SDS011;45231;44.826;20.312;2022-10-31T03:29:46;34.05;;;15.95;;
59424;SDS011;45231;44.826;20.312;2022-10-31T03:32:18;35.13;;;12.73;;
59424;SDS011;45231;44.826;20.312;2022-10-31T03:34:45;32.25;;;14.32;;
59424;SDS011;45231;44.826;20.312;2022-10-31T03:37:13;38.97;;;16.00;;
59424;SDS011;45231;44.826;20.312;2022-10-31T03:39:40;30.13;;;14.52;;
59424;SDS011;45231;44.826;20.312;2022-10-31T03:42:11;29.42;;;13.38;;
59424;SDS011;45231;44.826;20.312;2022-10-31T03:44:40;30.05;;;12.52;;
59424;SDS011;45231;44.826;20.312;2022-10-31T03:47:08;37.50;;;16.10;;
59424;SDS011;45231;44.826;20.312;2022-10-31T03:49:34;47.08;;;16.10;;
59424;SDS011;45231;44.826;20.312;2022-10-31T03:52:15;29.27;;;14.00;;
59424;SDS011;45231;44.826;20.312;2022-10-31T03:54:46;41.88;;;14.32;;
59424;SDS011;45231;44.826;20.312;2022-10-31T03:59:42;31.60;;;14.37;;
59424;SDS011;45231;44.826;20.312;2022-10-31T04:02:19;29.75;;;13.38;;
59424;SDS011;45231;44.826;20.312;2022-10-31T04:04:48;35.22;;;15.57;;
59424;SDS011;45231;44.826;20.312;2022-10-31T04:07:15;35.42;;;14.68;;
59424;SDS011;45231;44.826;20.312;2022-10-31T04:09:43;30.42;;;13.88;;
59424;SDS011;45231;44.826;20.312;2022-10-31T04:12:11;34.72;;;14.55;;
59424;SDS011;45231;44.826;20.312;2022-10-31T04:14:40;34.47;;;15.45;;
59424;SDS011;45231;44.826;20.312;2022-10-31T04:17:07;34.22;;;15.35;;
59424;SDS011;45231;44.826;20.312;2022-10-31T04:19:35;29.83;;;13.70;;
59424;SDS011;45231;44.826;20.312;2022-10-31T04:22:01;31.42;;;14.82;;
59424;SDS011;45231;44.826;20.312;2022-10-31T04:24:27;31.13;;;13.57;;
59424;SDS011;45231;44.826;20.312;2022-10-31T04:26:53;28.35;;;13.60;;
59424;SDS011;45231;44.826;20.312;2022-10-31T04:29:19;30.87;;;14.23;;
59424;SDS011;45231;44.826;20.312;2022-10-31T04:31:45;43.87;;;15.00;;
59424;SDS011;45231;44.826;20.312;2022-10-31T04:34:11;32.00;;;15.40;;
59424;SDS011;45231;44.826;20.312;2022-10-31T04:36:37;31.08;;;14.88;;
59424;SDS011;45231;44.826;20.312;2022-10-31T04:39:03;43.17;;;16.20;;
59424;SDS011;45231;44.826;20.312;2022-10-31T04:41:29;38.67;;;18.17;;
59424;SDS011;45231;44.826;20.312;2022-10-31T04:43:55;43.55;;;16.45;;
59424;SDS011;45231;44.826;20.312;2022-10-31T04:46:21;40.23;;;16.90;;
59424;SDS011;45231;44.826;20.312;2022-10-31T04:48:48;40.10;;;17.33;;
59424;SDS011;45231;44.826;20.312;2022-10-31T04:51:14;43.60;;;17.38;;
59424;SDS011;45231;44.826;20.312;2022-10-31T04:53:40;40.70;;;18.33;;
59424;SDS011;45231;44.826;20.312;2022-10-31T04:56:06;40.43;;;19.17;;
59424;SDS011;45231;44.826;20.312;2022-10-31T04:58:32;43.67;;;17.90;;
59424;SDS011;45231;44.826;20.312;2022-10-31T05:00:58;35.30;;;16.53;;
59424;SDS011;45231;44.826;20.312;2022-10-31T05:03:24;39.37;;;18.47;;
59424;SDS011;45231;44.826;20.312;2022-10-31T05:05:50;40.92;;;18.17;;
59424;SDS011;45231;44.826;20.312;2022-10-31T05:08:16;41.47;;;17.73;;
59424;SDS011;45231;44.826;20.312;2022-10-31T05:10:42;37.77;;;18.67;;
59424;SDS011;45231;44.826;20.312;2022-10-31T05:13:08;38.03;;;17.00;;
59424;SDS011;45231;44.826;20.312;2022-10-31T05:15:34;39.58;;;19.05;;
59424;SDS011;45231;44.826;20.312;2022-10-31T05:18:01;41.00;;;18.40;;
59424;SDS011;45231;44.826;20.312;2022-10-31T05:20:27;42.67;;;18.88;;
59424;SDS011;45231;44.826;20.312;2022-10-31T05:25:20;35.85;;;14.45;;
59424;SDS011;45231;44.826;20.312;2022-10-31T05:27:47;37.47;;;17.55;;
59424;SDS011;45231;44.826;20.312;2022-10-31T05:30:16;40.35;;;17.45;;
59424;SDS011;45231;44.826;20.312;2022-10-31T05:32:43;45.05;;;17.17;;
59424;SDS011;45231;44.826;20.312;2022-10-31T05:35:11;35.45;;;16.67;;
59424;SDS011;45231;44.826;20.312;2022-10-31T05:37:37;37.05;;;17.17;;
59424;SDS011;45231;44.826;20.312;2022-10-31T05:40:03;34.70;;;15.50;;
59424;SDS011;45231;44.826;20.312;2022-10-31T05:42:30;31.98;;;14.85;;
59424;SDS011;45231;44.826;20.312;2022-10-31T05:44:56;31.93;;;15.27;;
59424;SDS011;45231;44.826;20.312;2022-10-31T05:47:22;41.30;;;15.83;;
59424;SDS011;45231;44.826;20.312;2022-10-31T05:49:48;38.80;;;15.23;;
59424;SDS011;45231;44.826;20.312;2022-10-31T05:52:14;31.42;;;15.10;;
59424;SDS011;45231;44.826;20.312;2022-10-31T05:54:40;30.77;;;13.57;;
59424;SDS011;45231;44.826;20.312;2022-10-31T05:57:06;35.90;;;16.30;;
59424;SDS011;45231;44.826;20.312;2022-10-31T05:59:32;37.57;;;15.23;;
59424;SDS011;45231;44.826;20.312;2022-10-31T06:01:58;40.33;;;16.87;;
59424;SDS011;45231;44.826;20.312;2022-10-31T06:04:24;39.23;;;15.27;;
59424;SDS011;45231;44.826;20.312;2022-10-31T06:06:50;35.87;;;16.13;;
59424;SDS011;45231;44.826;20.312;2022-10-31T06:09:16;36.40;;;14.98;;
59424;SDS011;45231;44.826;20.312;2022-10-31T06:11:42;38.17;;;16.43;;
59424;SDS011;45231;44.826;20.312;2022-10-31T06:14:09;36.87;;;16.57;;
59424;SDS011;45231;44.826;20.312;2022-10-31T06:16:35;34.60;;;15.98;;
59424;SDS011;45231;44.826;20.312;2022-10-31T06:19:01;53.53;;;18.23;;
59424;SDS011;45231;44.826;20.312;2022-10-31T06:21:27;42.70;;;16.67;;
59424;SDS011;45231;44.826;20.312;2022-10-31T06:23:53;33.27;;;15.83;;
59424;SDS011;45231;44.826;20.312;2022-10-31T06:26:19;31.50;;;15.93;;
59424;SDS011;45231;44.826;20.312;2022-10-31T06:28:45;39.23;;;16.53;;
59424;SDS011;45231;44.826;20.312;2022-10-31T06:31:11;45.80;;;17.07;;
59424;SDS011;45231;44.826;20.312;2022-10-31T06:33:37;44.30;;;17.33;;
59424;SDS011;45231;44.826;20.312;2022-10-31T06:36:04;43.35;;;17.70;;
59424;SDS011;45231;44.826;20.312;2022-10-31T06:38:30;44.65;;;16.73;;
59424;SDS011;45231;44.826;20.312;2022-10-31T06:40:56;41.70;;;18.27;;
59424;SDS011;45231;44.826;20.312;2022-10-31T06:43:28;42.33;;;18.23;;
59424;SDS011;45231;44.826;20.312;2022-10-31T06:45:56;43.00;;;18.13;;
59424;SDS011;45231;44.826;20.312;2022-10-31T06:48:23;40.92;;;17.40;;
59424;SDS011;45231;44.826;20.312;2022-10-31T06:50:49;41.58;;;17.25;;
59424;SDS011;45231;44.826;20.312;2022-10-31T06:53:15;41.40;;;17.63;;
59424;SDS011;45231;44.826;20.312;2022-10-31T06:55:41;46.50;;;18.00;;
59424;SDS011;45231;44.826;20.312;2022-10-31T06:58:08;45.50;;;17.50;;
59424;SDS011;45231;44.826;20.312;2022-10-31T07:00:34;40.97;;;17.80;;
59424;SDS011;45231;44.826;20.312;2022-10-31T07:03:01;37.65;;;17.75;;
59424;SDS011;45231;44.826;20.312;2022-10-31T07:05:28;44.28;;;17.75;;
59424;SDS011;45231;44.826;20.312;2022-10-31T07:10:24;45.05;;;18.92;;
59424;SDS011;45231;44.826;20.312;2022-10-31T07:12:55;39.17;;;18.13;;
59424;SDS011;45231;44.826;20.312;2022-10-31T07:17:47;37.78;;;17.95;;
59424;SDS011;45231;44.826;20.312;2022-10-31T07:20:14;39.60;;;17.80;;
59424;SDS011;45231;44.826;20.312;2022-10-31T07:22:40;36.58;;;18.08;;
59424;SDS011;45231;44.826;20.312;2022-10-31T07:25:06;43.13;;;19.13;;
59424;SDS011;45231;44.826;20.312;2022-10-31T07:27:38;48.10;;;19.35;;
59424;SDS011;45231;44.826;20.312;2022-10-31T07:30:05;46.60;;;19.42;;
59424;SDS011;45231;44.826;20.312;2022-10-31T07:32:41;46.28;;;21.15;;
59424;SDS011;45231;44.826;20.312;2022-10-31T07:35:08;47.35;;;19.73;;
59424;SDS011;45231;44.826;20.312;2022-10-31T07:37:34;44.95;;;19.90;;
59424;SDS011;45231;44.826;20.312;2022-10-31T07:40:01;45.78;;;16.88;;
59424;SDS011;45231;44.826;20.312;2022-10-31T07:42:27;38.22;;;17.80;;
59424;SDS011;45231;44.826;20.312;2022-10-31T07:44:53;45.65;;;19.60;;
59424;SDS011;45231;44.826;20.312;2022-10-31T07:47:19;46.15;;;19.17;;
59424;SDS011;45231;44.826;20.312;2022-10-31T07:49:45;42.13;;;18.58;;
59424;SDS011;45231;44.826;20.312;2022-10-31T07:52:11;43.67;;;19.65;;
59424;SDS011;45231;44.826;20.312;2022-10-31T07:54:37;44.63;;;19.65;;
59424;SDS011;45231;44.826;20.312;2022-10-31T07:57:04;50.13;;;20.45;;
59424;SDS011;45231;44.826;20.312;2022-10-31T07:59:30;46.15;;;20.52;;
59424;SDS011;45231;44.826;20.312;2022-10-31T08:01:56;45.55;;;18.20;;
59424;SDS011;45231;44.826;20.312;2022-10-31T08:04:22;42.90;;;21.27;;
59424;SDS011;45231;44.826;20.312;2022-10-31T08:06:48;37.42;;;18.23;;
59424;SDS011;45231;44.826;20.312;2022-10-31T08:09:14;48.30;;;21.40;;
59424;SDS011;45231;44.826;20.312;2022-10-31T08:11:40;43.88;;;20.73;;
59424;SDS011;45231;44.826;20.312;2022-10-31T08:14:06;47.25;;;22.27;;
59424;SDS011;45231;44.826;20.312;2022-10-31T08:16:32;42.45;;;19.73;;
59424;SDS011;45231;44.826;20.312;2022-10-31T08:18:58;46.97;;;21.55;;
59424;SDS011;45231;44.826;20.312;2022-10-31T08:21:24;45.35;;;21.15;;
59424;SDS011;45231;44.826;20.312;2022-10-31T08:23:50;42.05;;;20.45;;
59424;SDS011;45231;44.826;20.312;2022-10-31T08:26:16;45.80;;;20.85;;
59424;SDS011;45231;44.826;20.312;2022-10-31T08:28:43;45.60;;;20.88;;
59424;SDS011;45231;44.826;20.312;2022-10-31T08:31:09;40.75;;;19.88;;
59424;SDS011;45231;44.826;20.312;2022-10-31T08:33:40;50.08;;;22.30;;
59424;SDS011;45231;44.826;20.312;2022-10-31T08:36:07;46.95;;;22.35;;
59424;SDS011;45231;44.826;20.312;2022-10-31T08:38:33;44.53;;;21.52;;
59424;SDS011;45231;44.826;20.312;2022-10-31T08:40:59;51.20;;;22.77;;
59424;SDS011;45231;44.826;20.312;2022-10-31T08:43:25;47.28;;;22.67;;
59424;SDS011;45231;44.826;20.312;2022-10-31T08:45:51;56.30;;;24.08;;
59424;SDS011;45231;44.826;20.312;2022-10-31T08:48:20;46.13;;;21.23;;
59424;SDS011;45231;44.826;20.312;2022-10-31T08:50:46;48.63;;;21.40;;
59424;SDS011;45231;44.826;20.312;2022-10-31T08:53:13;48.58;;;20.05;;
59424;SDS011;45231;44.826;20.312;2022-10-31T08:55:40;44.50;;;21.27;;
59424;SDS011;45231;44.826;20.312;2022-10-31T08:58:07;37.75;;;17.92;;
59424;SDS011;45231;44.826;20.312;2022-10-31T09:00:34;58.85;;;23.98;;
59424;SDS011;45231;44.826;20.312;2022-10-31T09:03:11;49.85;;;23.15;;
59424;SDS011;45231;44.826;20.312;2022-10-31T09:05:37;51.47;;;22.50;;
59424;SDS011;45231;44.826;20.312;2022-10-31T09:08:04;44.60;;;21.60;;
59424;SDS011;45231;44.826;20.312;2022-10-31T09:10:30;54.00;;;22.77;;
59424;SDS011;45231;44.826;20.312;2022-10-31T09:15:23;42.13;;;19.30;;
59424;SDS011;45231;44.826;20.312;2022-10-31T09:17:49;55.55;;;24.10;;
59424;SDS011;45231;44.826;20.312;2022-10-31T09:20:15;54.40;;;25.00;;
59424;SDS011;45231;44.826;20.312;2022-10-31T09:22:41;56.90;;;23.38;;
59424;SDS011;45231;44.826;20.312;2022-10-31T09:25:08;54.10;;;24.50;;
59424;SDS011;45231;44.826;20.312;2022-10-31T09:27:34;57.50;;;24.05;;
59424;SDS011;45231;44.826;20.312;2022-10-31T09:30:01;50.47;;;23.25;;
59424;SDS011;45231;44.826;20.312;2022-10-31T09:32:27;47.60;;;21.63;;
59424;SDS011;45231;44.826;20.312;2022-10-31T09:34:53;49.03;;;24.65;;
59424;SDS011;45231;44.826;20.312;2022-10-31T09:37:19;54.60;;;23.88;;
59424;SDS011;45231;44.826;20.312;2022-10-31T09:39:45;59.72;;;25.25;;
59424;SDS011;45231;44.826;20.312;2022-10-31T09:52:33;54.60;;;23.27;;
59424;SDS011;45231;44.826;20.312;2022-10-31T09:57:29;53.88;;;23.30;;
59424;SDS011;45231;44.826;20.312;2022-10-31T09:59:55;49.17;;;21.77;;
59424;SDS011;45231;44.826;20.312;2022-10-31T10:02:37;56.65;;;22.90;;
59424;SDS011;45231;44.826;20.312;2022-10-31T10:05:04;54.53;;;22.90;;
59424;SDS011;45231;44.826;20.312;2022-10-31T10:10:42;52.22;;;22.45;;
59424;SDS011;45231;44.826;20.312;2022-10-31T10:15:59;52.58;;;22.80;;
59424;SDS011;45231;44.826;20.312;2022-10-31T10:18:38;53.47;;;23.02;;
59424;SDS011;45231;44.826;20.312;2022-10-31T10:21:14;48.80;;;22.98;;
59424;SDS011;45231;44.826;20.312;2022-10-31T10:26:29;54.45;;;24.77;;
59424;SDS011;45231;44.826;20.312;2022-10-31T10:31:37;56.03;;;25.48;;
59424;SDS011;45231;44.826;20.312;2022-10-31T10:34:24;56.28;;;23.35;;
59424;SDS011;45231;44.826;20.312;2022-10-31T10:36:54;59.25;;;24.40;;
59424;SDS011;45231;44.826;20.312;2022-10-31T10:39:23;56.95;;;25.42;;
59424;SDS011;45231;44.826;20.312;2022-10-31T10:41:51;58.78;;;24.38;;
59424;SDS011;45231;44.826;20.312;2022-10-31T10:44:37;65.13;;;25.92;;
59424;SDS011;45231;44.826;20.312;2022-10-31T10:47:23;56.13;;;25.65;;
59424;SDS011;45231;44.826;20.312;2022-10-31T10:50:02;52.85;;;23.40;;
59424;SDS011;45231;44.826;20.312;2022-10-31T10:52:34;60.03;;;25.60;;
59424;SDS011;45231;44.826;20.312;2022-10-31T10:57:44;56.38;;;25.05;;
59424;SDS011;45231;44.826;20.312;2022-10-31T11:02:42;51.42;;;22.83;;
59424;SDS011;45231;44.826;20.312;2022-10-31T11:07:38;48.10;;;22.00;;
59424;SDS011;45231;44.826;20.312;2022-10-31T11:10:05;43.28;;;21.65;;
59424;SDS011;45231;44.826;20.312;2022-10-31T11:12:38;42.53;;;21.35;;
59424;SDS011;45231;44.826;20.312;2022-10-31T11:18:02;46.67;;;22.65;;
59424;SDS011;45231;44.826;20.312;2022-10-31T11:20:32;43.97;;;20.48;;
59424;SDS011;45231;44.826;20.312;2022-10-31T11:23:15;44.28;;;20.13;;
59424;SDS011;45231;44.826;20.312;2022-10-31T11:25:48;42.03;;;20.38;;
59424;SDS011;45231;44.826;20.312;2022-10-31T11:28:15;43.03;;;20.75;;
59424;SDS011;45231;44.826;20.312;2022-10-31T11:30:48;47.40;;;22.05;;
59424;SDS011;45231;44.826;20.312;2022-10-31T11:33:17;46.15;;;19.75;;
59424;SDS011;45231;44.826;20.312;2022-10-31T11:35:44;39.03;;;20.40;;
59424;SDS011;45231;44.826;20.312;2022-10-31T11:38:13;42.22;;;19.65;;
59424;SDS011;45231;44.826;20.312;2022-10-31T11:40:47;41.35;;;20.40;;
59424;SDS011;45231;44.826;20.312;2022-10-31T11:43:20;37.15;;;20.00;;
59424;SDS011;45231;44.826;20.312;2022-10-31T11:45:46;42.42;;;20.02;;
59424;SDS011;45231;44.826;20.312;2022-10-31T11:48:16;42.03;;;19.88;;
59424;SDS011;45231;44.826;20.312;2022-10-31T11:50:47;42.90;;;20.23;;
59424;SDS011;45231;44.826;20.312;2022-10-31T11:53:17;43.22;;;21.40;;
59424;SDS011;45231;44.826;20.312;2022-10-31T11:55:44;43.00;;;21.65;;
59424;SDS011;45231;44.826;20.312;2022-10-31T11:58:22;39.67;;;20.58;;
59424;SDS011;45231;44.826;20.312;2022-10-31T12:00:49;41.40;;;19.93;;
59424;SDS011;45231;44.826;20.312;2022-10-31T12:08:24;40.80;;;20.20;;
59424;SDS011;45231;44.826;20.312;2022-10-31T12:13:40;37.30;;;19.45;;
59424;SDS011;45231;44.826;20.312;2022-10-31T12:16:12;44.20;;;20.65;;
59424;SDS011;45231;44.826;20.312;2022-10-31T12:18:51;42.58;;;20.73;;
59424;SDS011;45231;44.826;20.312;2022-10-31T12:21:41;44.55;;;21.23;;
59424;SDS011;45231;44.826;20.312;2022-10-31T12:36:49;41.95;;;21.23;;
59424;SDS011;45231;44.826;20.312;2022-10-31T12:47:12;44.58;;;22.23;;
59424;SDS011;45231;44.826;20.312;2022-10-31T12:57:33;43.45;;;22.90;;
59424;SDS011;45231;44.826;20.312;2022-10-31T13:02:33;41.70;;;20.98;;
59424;SDS011;45231;44.826;20.312;2022-10-31T13:07:52;40.13;;;20.98;;
59424;SDS011;45231;44.826;20.312;2022-10-31T13:10:22;40.50;;;20.83;;
59424;SDS011;45231;44.826;20.312;2022-10-31T13:12:55;39.78;;;20.65;;
59424;SDS011;45231;44.826;20.312;2022-10-31T13:15:23;42.88;;;20.48;;
59424;SDS011;45231;44.826;20.312;2022-10-31T13:17:57;38.17;;;19.77;;
59424;SDS011;45231;44.826;20.312;2022-10-31T13:25:47;40.10;;;19.30;;
59424;SDS011;45231;44.826;20.312;2022-10-31T13:28:36;38.03;;;18.98;;
59424;SDS011;45231;44.826;20.312;2022-10-31T13:31:01;37.63;;;19.52;;
59424;SDS011;45231;44.826;20.312;2022-10-31T13:33:33;39.25;;;18.77;;
59424;SDS011;45231;44.826;20.312;2022-10-31T13:36:10;40.45;;;18.20;;
59424;SDS011;45231;44.826;20.312;2022-10-31T13:38:40;38.50;;;20.13;;
59424;SDS011;45231;44.826;20.312;2022-10-31T13:46:24;42.83;;;21.55;;
59424;SDS011;45231;44.826;20.312;2022-10-31T13:48:51;41.63;;;21.58;;
59424;SDS011;45231;44.826;20.312;2022-10-31T13:51:24;41.72;;;20.20;;
59424;SDS011;45231;44.826;20.312;2022-10-31T13:56:26;34.88;;;20.00;;
59424;SDS011;45231;44.826;20.312;2022-10-31T13:59:15;41.47;;;22.40;;
59424;SDS011;45231;44.826;20.312;2022-10-31T14:01:47;40.20;;;21.10;;
59424;SDS011;45231;44.826;20.312;2022-10-31T14:04:15;37.67;;;19.75;;
59424;SDS011;45231;44.826;20.312;2022-10-31T14:09:29;42.65;;;21.30;;
59424;SDS011;45231;44.826;20.312;2022-10-31T14:11:57;40.22;;;20.50;;
59424;SDS011;45231;44.826;20.312;2022-10-31T14:14:27;42.53;;;20.90;;
59424;SDS011;45231;44.826;20.312;2022-10-31T14:16:59;43.28;;;20.85;;
59424;SDS011;45231;44.826;20.312;2022-10-31T14:19:26;40.28;;;21.55;;
59424;SDS011;45231;44.826;20.312;2022-10-31T14:21:53;42.53;;;20.45;;
59424;SDS011;45231;44.826;20.312;2022-10-31T14:26:58;41.65;;;20.92;;
59424;SDS011;45231;44.826;20.312;2022-10-31T14:29:27;41.13;;;21.37;;
59424;SDS011;45231;44.826;20.312;2022-10-31T14:39:39;44.53;;;21.60;;
59424;SDS011;45231;44.826;20.312;2022-10-31T14:49:59;44.38;;;19.83;;
59424;SDS011;45231;44.826;20.312;2022-10-31T14:52:29;46.20;;;21.40;;
59424;SDS011;45231;44.826;20.312;2022-10-31T14:54:56;43.72;;;19.15;;
59424;SDS011;45231;44.826;20.312;2022-10-31T14:57:28;44.47;;;19.17;;
59424;SDS011;45231;44.826;20.312;2022-10-31T14:59:59;38.38;;;19.15;;
59424;SDS011;45231;44.826;20.312;2022-10-31T15:02:40;38.40;;;17.48;;
59424;SDS011;45231;44.826;20.312;2022-10-31T15:05:09;40.08;;;17.98;;
59424;SDS011;45231;44.826;20.312;2022-10-31T15:07:36;44.65;;;18.95;;
59424;SDS011;45231;44.826;20.312;2022-10-31T15:10:06;46.60;;;19.40;;
59424;SDS011;45231;44.826;20.312;2022-10-31T15:12:33;41.38;;;18.70;;
59424;SDS011;45231;44.826;20.312;2022-10-31T15:15:14;45.25;;;18.55;;
59424;SDS011;45231;44.826;20.312;2022-10-31T15:17:43;43.55;;;19.00;;
59424;SDS011;45231;44.826;20.312;2022-10-31T15:20:11;37.38;;;17.58;;
59424;SDS011;45231;44.826;20.312;2022-10-31T15:22:37;42.78;;;18.95;;
59424;SDS011;45231;44.826;20.312;2022-10-31T15:25:03;51.15;;;20.45;;
59424;SDS011;45231;44.826;20.312;2022-10-31T15:27:30;48.88;;;19.65;;
59424;SDS011;45231;44.826;20.312;2022-10-31T15:29:58;48.17;;;19.88;;
59424;SDS011;45231;44.826;20.312;2022-10-31T15:32:28;52.25;;;20.73;;
59424;SDS011;45231;44.826;20.312;2022-10-31T15:34:54;48.80;;;20.27;;
59424;SDS011;45231;44.826;20.312;2022-10-31T15:37:23;48.35;;;20.67;;
59424;SDS011;45231;44.826;20.312;2022-10-31T15:39:50;51.13;;;20.92;;
59424;SDS011;45231;44.826;20.312;2022-10-31T15:44:42;52.88;;;21.13;;
59424;SDS011;45231;44.826;20.312;2022-10-31T15:47:14;53.30;;;19.88;;
59424;SDS011;45231;44.826;20.312;2022-10-31T15:52:30;48.05;;;20.02;;
59424;SDS011;45231;44.826;20.312;2022-10-31T15:54:58;52.35;;;21.35;;
59424;SDS011;45231;44.826;20.312;2022-10-31T15:57:25;47.70;;;19.85;;
59424;SDS011;45231;44.826;20.312;2022-10-31T15:59:52;55.85;;;20.48;;
59424;SDS011;45231;44.826;20.312;2022-10-31T16:02:22;55.08;;;22.00;;
59424;SDS011;45231;44.826;20.312;2022-10-31T16:04:53;56.53;;;21.88;;
59424;SDS011;45231;44.826;20.312;2022-10-31T16:07:20;51.20;;;20.20;;
59424;SDS011;45231;44.826;20.312;2022-10-31T16:12:15;50.63;;;21.38;;
59424;SDS011;45231;44.826;20.312;2022-10-31T16:14:41;49.03;;;21.15;;
59424;SDS011;45231;44.826;20.312;2022-10-31T16:17:11;45.35;;;19.08;;
59424;SDS011;45231;44.826;20.312;2022-10-31T16:22:20;48.38;;;20.35;;
59424;SDS011;45231;44.826;20.312;2022-10-31T16:24:51;49.22;;;21.08;;
59424;SDS011;45231;44.826;20.312;2022-10-31T16:27:22;52.50;;;21.08;;
59424;SDS011;45231;44.826;20.312;2022-10-31T16:29:53;50.55;;;19.33;;
59424;SDS011;45231;44.826;20.312;2022-10-31T16:32:26;51.47;;;20.17;;
59424;SDS011;45231;44.826;20.312;2022-10-31T16:37:36;50.08;;;21.00;;
59424;SDS011;45231;44.826;20.312;2022-10-31T16:40:02;55.70;;;20.33;;
59424;SDS011;45231;44.826;20.312;2022-10-31T16:42:29;54.35;;;21.75;;
59424;SDS011;45231;44.826;20.312;2022-10-31T16:44:55;51.75;;;22.85;;
59424;SDS011;45231;44.826;20.312;2022-10-31T16:47:21;50.60;;;20.35;;
59424;SDS011;45231;44.826;20.312;2022-10-31T16:49:47;57.83;;;21.35;;
59424;SDS011;45231;44.826;20.312;2022-10-31T16:52:15;48.75;;;20.48;;
59424;SDS011;45231;44.826;20.312;2022-10-31T16:54:41;53.90;;;20.75;;
59424;SDS011;45231;44.826;20.312;2022-10-31T16:57:08;53.85;;;20.83;;
59424;SDS011;45231;44.826;20.312;2022-10-31T16:59:37;47.50;;;19.88;;
59424;SDS011;45231;44.826;20.312;2022-10-31T17:02:04;49.53;;;20.65;;
59424;SDS011;45231;44.826;20.312;2022-10-31T17:04:30;51.40;;;20.42;;
59424;SDS011;45231;44.826;20.312;2022-10-31T17:06:56;54.42;;;21.70;;
59424;SDS011;45231;44.826;20.312;2022-10-31T17:09:22;52.97;;;20.40;;
59424;SDS011;45231;44.826;20.312;2022-10-31T17:11:49;50.75;;;21.60;;